Aviation Digital Data Service (ADDS)

Output produced by TAFs form (1139 UTC 18 September 2014)
found at http://aviationweather.gov/adds/tafs/
 
KHOB 181120Z 1812/1912 06006KT P6SM FEW045 OVC130 
     TEMPO 1812/1816 VRB15G25KT 6SM SHRA 
     FM181600 07008KT P6SM SCT035 OVC070 
     FM190100 09006KT P6SM OVC035 
     FM191000 09006KT P6SM OVC009